createdAt,value
2017-07-14T00:00:24.099Z,13.70
2017-07-14T00:02:53.032Z,13.70
2017-07-14T00:05:21.665Z,13.70
2017-07-14T00:07:49.835Z,13.70
2017-07-14T00:10:17.976Z,13.70
2017-07-14T00:12:46.118Z,13.80
2017-07-14T00:15:14.234Z,13.80
2017-07-14T00:17:42.860Z,13.80
2017-07-14T00:20:11.084Z,13.70
2017-07-14T00:22:39.224Z,13.70
2017-07-14T00:25:07.370Z,13.70
2017-07-14T00:27:35.510Z,13.70
2017-07-14T00:30:03.665Z,13.70
2017-07-14T00:32:31.803Z,13.60
2017-07-14T00:34:59.936Z,13.60
2017-07-14T00:37:28.086Z,13.60
2017-07-14T00:39:56.235Z,13.50
2017-07-14T00:42:24.422Z,13.50
2017-07-14T00:44:52.552Z,13.50
2017-07-14T00:47:20.698Z,13.40
2017-07-14T00:49:48.932Z,13.40
2017-07-14T00:52:17.056Z,13.40
2017-07-14T00:54:45.967Z,13.40
2017-07-14T00:57:14.236Z,13.40
2017-07-14T00:59:42.368Z,13.40
2017-07-14T01:02:10.504Z,13.40
2017-07-14T01:04:38.680Z,13.50
2017-07-14T01:07:06.807Z,13.50
2017-07-14T01:09:34.943Z,13.50
2017-07-14T01:12:03.094Z,13.50
2017-07-14T01:14:31.224Z,13.50
2017-07-14T01:16:59.374Z,13.40
2017-07-14T01:19:27.509Z,13.40
2017-07-14T01:21:55.663Z,13.40
2017-07-14T01:24:23.786Z,13.40
2017-07-14T01:26:52.775Z,13.30
2017-07-14T01:29:20.942Z,13.30
2017-07-14T01:31:49.077Z,13.20
2017-07-14T01:34:17.405Z,13.20
2017-07-14T01:36:45.548Z,13.10
2017-07-14T01:39:13.730Z,13.10
2017-07-14T01:41:41.844Z,13.00
2017-07-14T01:44:10.029Z,12.90
2017-07-14T01:46:38.185Z,12.90
2017-07-14T01:49:07.089Z,12.80
2017-07-14T01:51:35.247Z,12.70
2017-07-14T01:54:03.366Z,12.80
2017-07-14T01:56:31.542Z,12.70
2017-07-14T01:58:59.664Z,12.70
2017-07-14T02:01:27.771Z,12.70
2017-07-14T02:03:55.993Z,12.70
2017-07-14T02:06:24.321Z,12.60
2017-07-14T02:08:54.808Z,12.60
2017-07-14T02:11:22.949Z,12.60
2017-07-14T02:13:51.956Z,12.60
2017-07-14T02:16:20.118Z,12.60
2017-07-14T02:18:48.361Z,12.50
2017-07-14T02:21:16.529Z,12.40
2017-07-14T02:23:44.746Z,12.40
2017-07-14T02:26:12.881Z,12.40
2017-07-14T02:28:41.038Z,12.40
2017-07-14T02:31:09.174Z,12.40
2017-07-14T02:33:37.305Z,12.40
2017-07-14T02:36:05.439Z,12.40
2017-07-14T02:38:33.594Z,12.40
2017-07-14T02:41:01.734Z,12.40
2017-07-14T02:43:30.138Z,12.40
2017-07-14T02:45:58.328Z,12.30
2017-07-14T02:48:26.452Z,12.20
2017-07-14T02:50:54.573Z,12.20
2017-07-14T02:53:22.713Z,12.20
2017-07-14T02:55:50.834Z,12.10
2017-07-14T02:58:19.011Z,12.20
2017-07-14T03:00:47.160Z,12.20
2017-07-14T03:03:15.283Z,12.20
2017-07-14T03:05:43.455Z,12.20
2017-07-14T03:08:11.571Z,12.20
2017-07-14T03:10:39.691Z,12.20
2017-07-14T03:13:07.854Z,12.20
2017-07-14T03:15:35.988Z,12.20
2017-07-14T03:18:04.108Z,12.30
2017-07-14T03:20:32.260Z,12.30
2017-07-14T03:23:00.386Z,12.20
2017-07-14T03:25:28.588Z,12.20
2017-07-14T03:27:56.856Z,12.30
2017-07-14T03:30:25.154Z,12.30
2017-07-14T03:32:53.300Z,12.30
2017-07-14T03:35:21.427Z,12.20
2017-07-14T03:37:50.280Z,12.20
2017-07-14T03:40:18.433Z,12.20
2017-07-14T03:42:47.421Z,12.10
2017-07-14T03:45:15.536Z,12.00
2017-07-14T03:47:43.704Z,12.20
2017-07-14T03:50:11.838Z,12.30
2017-07-14T03:52:40.306Z,12.20
2017-07-14T03:55:08.664Z,12.30
2017-07-14T03:57:36.795Z,12.30
2017-07-14T04:00:04.925Z,12.30
2017-07-14T04:02:33.075Z,12.40
2017-07-14T04:05:01.196Z,12.40
2017-07-14T04:07:30.226Z,12.50
2017-07-14T04:09:58.362Z,12.50
2017-07-14T04:12:26.481Z,12.40
2017-07-14T04:14:54.630Z,12.40
2017-07-14T04:17:23.459Z,12.50
2017-07-14T04:19:52.026Z,12.60
2017-07-14T04:22:20.198Z,12.60
2017-07-14T04:24:48.325Z,12.60
2017-07-14T04:27:17.302Z,12.60
2017-07-14T04:29:45.481Z,12.60
2017-07-14T04:32:13.617Z,12.60
2017-07-14T04:34:41.743Z,12.70
2017-07-14T04:37:09.893Z,12.60
2017-07-14T04:39:38.116Z,12.60
2017-07-14T04:42:06.233Z,12.60
2017-07-14T04:44:34.395Z,12.60
2017-07-14T04:47:02.550Z,12.70
2017-07-14T04:49:30.711Z,12.80
2017-07-14T04:51:58.871Z,12.90
2017-07-14T04:54:27.007Z,13.00
2017-07-14T04:56:55.163Z,13.00
2017-07-14T04:59:23.296Z,13.00
2017-07-14T05:01:52.199Z,13.20
2017-07-14T05:04:20.385Z,13.20
2017-07-14T05:06:49.431Z,13.30
2017-07-14T05:09:18.363Z,13.50
2017-07-14T05:11:46.609Z,13.50
2017-07-14T05:14:14.765Z,13.60
2017-07-14T05:16:42.919Z,13.70
2017-07-14T05:19:11.088Z,13.90
2017-07-14T05:21:39.196Z,13.90
2017-07-14T05:24:08.089Z,14.10
2017-07-14T05:26:36.248Z,14.10
2017-07-14T05:29:04.393Z,14.20
2017-07-14T05:31:32.533Z,14.30
2017-07-14T05:34:00.680Z,14.40
2017-07-14T05:36:28.819Z,14.60
2017-07-14T05:38:56.981Z,14.70
2017-07-14T05:41:25.208Z,15.00
2017-07-14T05:43:53.332Z,15.10
2017-07-14T05:46:22.289Z,15.10
2017-07-14T05:48:50.810Z,15.10
2017-07-14T05:51:18.943Z,15.20
2017-07-14T05:53:47.093Z,15.30
2017-07-14T05:56:15.259Z,15.40
2017-07-14T05:58:43.408Z,15.50
2017-07-14T06:01:12.336Z,15.60
2017-07-14T06:03:40.489Z,15.50
2017-07-14T06:06:08.646Z,15.70
2017-07-14T06:08:36.929Z,15.70
2017-07-14T06:11:05.793Z,15.60
2017-07-14T06:13:33.921Z,15.60
2017-07-14T06:16:02.082Z,15.60
2017-07-14T06:18:30.208Z,15.80
2017-07-14T06:20:59.199Z,15.90
2017-07-14T06:23:27.363Z,15.80
2017-07-14T06:25:55.987Z,15.90
2017-07-14T06:28:24.893Z,16.10
2017-07-14T06:30:53.103Z,16.00
2017-07-14T06:33:21.233Z,16.20
2017-07-14T06:35:49.386Z,16.20
2017-07-14T06:38:17.575Z,16.40
2017-07-14T06:40:45.746Z,16.40
2017-07-14T06:43:13.917Z,16.50
2017-07-14T06:45:42.626Z,16.50
2017-07-14T06:48:10.771Z,16.40
2017-07-14T06:50:38.908Z,16.50
2017-07-14T06:53:07.404Z,16.40
2017-07-14T06:55:35.539Z,16.60
2017-07-14T06:58:03.660Z,16.60
2017-07-14T07:00:31.819Z,16.80
2017-07-14T07:02:59.983Z,16.70
2017-07-14T07:05:28.110Z,16.80
2017-07-14T07:07:56.313Z,16.90
2017-07-14T07:10:24.483Z,17.00
2017-07-14T07:12:52.636Z,17.10
2017-07-14T07:15:20.793Z,17.30
2017-07-14T07:17:49.506Z,17.00
2017-07-14T07:20:17.666Z,17.20
2017-07-14T07:22:45.813Z,17.50
2017-07-14T07:25:13.977Z,17.70
2017-07-14T07:27:42.087Z,17.80
2017-07-14T07:30:10.239Z,18.00
2017-07-14T07:32:38.356Z,18.30
2017-07-14T07:35:06.494Z,18.60
2017-07-14T07:37:34.657Z,18.70
2017-07-14T07:40:02.776Z,19.00
2017-07-14T07:42:30.917Z,19.10
2017-07-14T07:44:59.073Z,18.70
2017-07-14T07:47:46.915Z,19.00
2017-07-14T07:50:15.064Z,19.20
2017-07-14T07:52:43.226Z,19.60
2017-07-14T07:55:11.380Z,19.10
2017-07-14T07:57:39.559Z,19.20
2017-07-14T08:00:07.684Z,19.30
2017-07-14T08:02:41.624Z,19.40
2017-07-14T08:05:09.756Z,19.50
2017-07-14T08:07:38.663Z,19.50
2017-07-14T08:10:06.842Z,19.40
2017-07-14T08:12:34.973Z,19.60
2017-07-14T08:15:03.572Z,19.60
2017-07-14T08:17:32.513Z,19.60
2017-07-14T08:20:00.661Z,19.70
2017-07-14T08:22:28.795Z,19.80
2017-07-14T08:24:56.960Z,19.90
2017-07-14T08:27:26.165Z,19.90
2017-07-14T08:29:55.049Z,20.10
2017-07-14T08:32:23.246Z,20.00
2017-07-14T08:34:52.142Z,21.00
2017-07-14T08:37:20.260Z,20.90
2017-07-14T08:39:48.415Z,21.30
2017-07-14T08:42:16.522Z,21.80
2017-07-14T08:44:44.640Z,22.00
2017-07-14T08:47:12.802Z,21.70
2017-07-14T08:49:40.937Z,21.70
2017-07-14T08:52:09.044Z,21.60
2017-07-14T08:54:37.281Z,21.60
2017-07-14T08:57:05.427Z,21.90
2017-07-14T08:59:33.549Z,22.30
2017-07-14T09:02:01.719Z,22.50
2017-07-14T09:04:29.843Z,22.50
2017-07-14T09:06:57.967Z,22.60
2017-07-14T09:09:26.130Z,23.10
2017-07-14T09:11:55.017Z,22.90
2017-07-14T09:14:23.124Z,22.80
2017-07-14T09:16:51.280Z,22.70
2017-07-14T09:19:19.404Z,22.80
2017-07-14T09:21:47.528Z,22.70
2017-07-14T09:24:15.752Z,22.90
2017-07-14T09:26:43.927Z,23.00
2017-07-14T09:29:12.138Z,23.10
2017-07-14T09:31:40.302Z,23.50
2017-07-14T09:34:08.449Z,23.40
2017-07-14T09:36:36.865Z,23.80
2017-07-14T09:39:05.021Z,24.10
2017-07-14T09:41:33.142Z,24.30
2017-07-14T09:44:01.484Z,24.40
2017-07-14T09:46:29.636Z,25.00
2017-07-14T09:48:57.774Z,25.40
2017-07-14T09:51:25.910Z,25.30
2017-07-14T09:53:54.058Z,25.70
2017-07-14T09:56:22.970Z,25.30
2017-07-14T09:58:51.119Z,25.20
2017-07-14T10:01:20.183Z,25.20
2017-07-14T10:03:48.320Z,25.40
2017-07-14T10:06:16.514Z,26.00
2017-07-14T10:08:44.660Z,26.30
2017-07-14T10:11:12.786Z,26.50
2017-07-14T10:13:40.921Z,26.30
2017-07-14T10:16:09.893Z,26.50
2017-07-14T10:18:38.040Z,26.50
2017-07-14T10:21:06.208Z,26.30
2017-07-14T10:23:35.629Z,26.10
2017-07-14T10:26:03.760Z,26.30
2017-07-14T10:28:32.589Z,26.20
2017-07-14T10:31:00.746Z,26.20
2017-07-14T10:33:29.543Z,26.40
2017-07-14T10:35:57.661Z,26.30
2017-07-14T10:38:25.839Z,26.60
2017-07-14T10:40:53.978Z,26.80
2017-07-14T10:43:22.214Z,27.00
2017-07-14T10:45:50.388Z,26.60
2017-07-14T10:48:19.325Z,26.90
2017-07-14T10:50:47.560Z,26.80
2017-07-14T10:53:15.764Z,27.00
2017-07-14T10:55:43.898Z,26.50
2017-07-14T10:58:12.784Z,26.40
2017-07-14T11:00:40.941Z,26.40
2017-07-14T11:03:10.157Z,26.70
2017-07-14T11:05:39.050Z,26.80
2017-07-14T11:08:07.222Z,26.80
2017-07-14T11:10:36.154Z,26.60
2017-07-14T11:13:04.286Z,26.30
2017-07-14T11:15:32.441Z,26.60
2017-07-14T11:18:00.575Z,26.30
2017-07-14T11:20:28.707Z,26.40
2017-07-14T11:22:56.912Z,26.50
2017-07-14T11:25:25.053Z,26.40
2017-07-14T11:27:53.986Z,26.30
2017-07-14T11:30:22.158Z,26.30
2017-07-14T11:32:51.069Z,26.00
2017-07-14T11:35:19.221Z,25.90
2017-07-14T11:37:47.393Z,25.40
2017-07-14T11:40:15.597Z,25.60
2017-07-14T11:42:43.755Z,26.40
2017-07-14T11:45:11.921Z,26.40
2017-07-14T11:47:40.066Z,26.10
2017-07-14T11:50:08.258Z,25.90
2017-07-14T11:52:36.418Z,25.90
2017-07-14T11:55:04.561Z,26.20
2017-07-14T11:57:32.739Z,26.00
2017-07-14T12:00:00.909Z,25.30
2017-07-14T12:02:29.081Z,25.20
2017-07-14T12:04:57.193Z,25.20
2017-07-14T12:07:25.374Z,24.90
2017-07-14T12:09:53.535Z,24.40
2017-07-14T12:12:22.584Z,24.10
2017-07-14T12:14:50.790Z,24.00
2017-07-14T12:17:18.972Z,24.50
2017-07-14T12:19:47.415Z,25.20
2017-07-14T12:22:15.572Z,25.80
2017-07-14T12:24:44.507Z,26.20
2017-07-14T12:27:12.702Z,26.10
2017-07-14T12:29:40.881Z,26.00
2017-07-14T12:32:09.037Z,25.50
2017-07-14T12:34:37.188Z,25.30
2017-07-14T12:37:05.358Z,25.40
2017-07-14T12:39:34.417Z,25.70
2017-07-14T12:42:04.023Z,25.80
2017-07-14T12:44:32.176Z,25.90
2017-07-14T12:47:01.210Z,25.80
2017-07-14T12:49:29.392Z,25.90
2017-07-14T12:51:57.571Z,26.20
2017-07-14T12:54:25.697Z,26.00
2017-07-14T12:56:54.691Z,26.20
2017-07-14T12:59:22.856Z,26.30
2017-07-14T13:01:50.962Z,26.40
2017-07-14T13:04:19.089Z,26.30
2017-07-14T13:06:47.269Z,25.80
2017-07-14T13:09:15.404Z,26.00
2017-07-14T13:11:43.542Z,25.60
2017-07-14T13:14:11.750Z,25.60
2017-07-14T13:16:39.900Z,25.50
2017-07-14T13:19:08.024Z,25.00
2017-07-14T13:21:37.336Z,23.80
2017-07-14T13:24:05.495Z,23.70
2017-07-14T13:26:33.668Z,23.30
2017-07-14T13:29:01.831Z,23.00
2017-07-14T13:31:29.984Z,23.10
2017-07-14T13:33:58.114Z,23.00
2017-07-14T13:36:26.266Z,23.40
2017-07-14T13:38:55.208Z,23.20
2017-07-14T13:41:23.373Z,23.00
2017-07-14T13:43:51.528Z,22.80
2017-07-14T13:46:19.868Z,22.50
2017-07-14T13:48:48.038Z,22.10
2017-07-14T13:51:16.210Z,21.90
2017-07-14T13:53:44.336Z,21.70
2017-07-14T13:56:12.476Z,21.80
2017-07-14T13:58:40.652Z,22.10
2017-07-14T14:01:09.571Z,22.50
2017-07-14T14:03:37.687Z,22.50
2017-07-14T14:06:05.828Z,22.90
2017-07-14T14:08:33.989Z,23.20
2017-07-14T14:11:02.113Z,23.40
2017-07-14T14:13:30.295Z,23.40
2017-07-14T14:15:58.872Z,23.30
2017-07-14T14:18:27.178Z,23.20
2017-07-14T14:20:55.371Z,23.20
2017-07-14T14:23:23.969Z,23.30
2017-07-14T14:25:52.115Z,23.40
2017-07-14T14:28:20.336Z,23.40
2017-07-14T14:30:48.476Z,23.50
2017-07-14T14:33:16.644Z,23.40
2017-07-14T14:35:44.884Z,23.30
2017-07-14T14:38:13.004Z,22.90
2017-07-14T14:40:41.933Z,22.90
2017-07-14T14:43:10.138Z,22.80
2017-07-14T14:45:38.265Z,22.80
2017-07-14T14:48:06.400Z,22.80
2017-07-14T14:50:34.574Z,22.90
2017-07-14T14:53:02.716Z,23.20
2017-07-14T14:55:30.928Z,23.10
2017-07-14T14:57:59.091Z,22.90
2017-07-14T15:00:27.576Z,22.80
2017-07-14T15:02:55.720Z,22.80
2017-07-14T15:05:23.884Z,22.60
2017-07-14T15:07:52.049Z,22.40
2017-07-14T15:10:20.187Z,22.10
2017-07-14T15:12:48.366Z,22.30
2017-07-14T15:15:16.494Z,22.20
2017-07-14T15:17:44.680Z,22.10
2017-07-14T15:20:12.854Z,22.20
2017-07-14T15:22:41.042Z,22.20
2017-07-14T15:25:09.955Z,22.10
2017-07-14T15:27:38.115Z,22.10
2017-07-14T15:30:06.486Z,21.90
2017-07-14T15:32:34.626Z,21.90
2017-07-14T15:35:02.790Z,22.00
2017-07-14T15:37:31.032Z,22.00
2017-07-14T15:39:59.827Z,22.00
2017-07-14T15:42:28.003Z,22.00
2017-07-14T15:44:56.532Z,22.00
2017-07-14T15:47:24.645Z,22.00
2017-07-14T15:49:54.177Z,22.00
2017-07-14T15:52:22.332Z,22.00
2017-07-14T15:54:50.460Z,21.70
2017-07-14T15:57:18.629Z,21.80
2017-07-14T15:59:46.832Z,21.90
2017-07-14T16:02:14.957Z,21.90
2017-07-14T16:04:43.155Z,21.90
2017-07-14T16:07:11.284Z,21.90
2017-07-14T16:09:39.425Z,21.90
2017-07-14T16:12:08.354Z,21.80
2017-07-14T16:14:36.476Z,21.80
2017-07-14T16:17:04.616Z,21.90
2017-07-14T16:19:32.820Z,21.80
2017-07-14T16:22:00.947Z,21.70
2017-07-14T16:24:29.095Z,21.80
2017-07-14T16:26:58.146Z,21.70
2017-07-14T16:29:26.269Z,21.70
2017-07-14T16:31:54.408Z,21.70
2017-07-14T16:34:22.543Z,21.50
2017-07-14T16:36:50.723Z,21.40
2017-07-14T16:39:18.874Z,21.30
2017-07-14T16:41:47.047Z,21.20
2017-07-14T16:44:15.164Z,21.20
2017-07-14T16:46:43.302Z,21.10
2017-07-14T16:49:11.477Z,21.10
2017-07-14T16:51:39.598Z,21.20
2017-07-14T16:54:07.721Z,21.20
2017-07-14T16:56:35.894Z,21.20
2017-07-14T16:59:04.015Z,21.10
2017-07-14T17:01:32.134Z,21.20
2017-07-14T17:04:00.283Z,21.20
2017-07-14T17:06:28.409Z,21.20
2017-07-14T17:08:56.561Z,21.10
2017-07-14T17:11:25.650Z,21.10
2017-07-14T17:13:53.798Z,21.00
2017-07-14T17:16:21.928Z,21.10
2017-07-14T17:18:51.443Z,21.00
2017-07-14T17:21:19.600Z,20.90
2017-07-14T17:23:47.728Z,20.90
2017-07-14T17:26:15.970Z,20.90
2017-07-14T17:28:44.125Z,21.00
2017-07-14T17:31:12.250Z,21.00
2017-07-14T17:33:41.160Z,20.90
2017-07-14T17:36:09.285Z,20.90
2017-07-14T17:38:37.438Z,20.90
2017-07-14T17:41:05.745Z,20.90
2017-07-14T17:43:33.881Z,20.80
2017-07-14T17:46:02.054Z,20.70
2017-07-14T17:48:30.266Z,20.70
2017-07-14T17:50:59.162Z,20.80
2017-07-14T17:53:27.296Z,20.70
2017-07-14T17:55:56.038Z,20.70
2017-07-14T17:58:24.218Z,20.60
2017-07-14T18:00:52.679Z,20.60
2017-07-14T18:03:20.868Z,20.60
2017-07-14T18:05:49.765Z,20.60
2017-07-14T18:08:18.321Z,20.50
2017-07-14T18:10:46.546Z,20.50
2017-07-14T18:13:14.670Z,20.50
2017-07-14T18:15:42.832Z,20.40
2017-07-14T18:18:11.011Z,20.50
2017-07-14T18:20:39.138Z,20.50
2017-07-14T18:23:07.257Z,20.50
2017-07-14T18:25:35.407Z,20.50
2017-07-14T18:28:04.660Z,20.50
2017-07-14T18:30:32.801Z,20.50
2017-07-14T18:33:01.029Z,20.40
2017-07-14T18:35:29.179Z,20.40
2017-07-14T18:37:57.309Z,20.40
2017-07-14T18:40:25.466Z,20.40
2017-07-14T18:42:53.718Z,20.30
2017-07-14T18:45:21.976Z,20.20
2017-07-14T18:47:50.566Z,20.20
2017-07-14T18:50:18.698Z,20.20
2017-07-14T18:52:46.905Z,20.20
2017-07-14T18:55:15.177Z,20.00
2017-07-14T18:57:43.340Z,20.00
2017-07-14T19:00:12.323Z,19.90
2017-07-14T19:02:40.934Z,19.90
2017-07-14T19:05:09.063Z,19.90
2017-07-14T19:07:37.217Z,19.80
2017-07-14T19:10:05.369Z,19.60
2017-07-14T19:12:33.494Z,19.60
2017-07-14T19:15:01.710Z,19.60
2017-07-14T19:17:29.867Z,19.60
2017-07-14T19:19:58.008Z,19.40
2017-07-14T19:22:26.158Z,19.40
2017-07-14T19:24:54.300Z,19.40
2017-07-14T19:27:22.447Z,19.30
2017-07-14T19:29:50.579Z,19.30
2017-07-14T19:32:18.756Z,19.30
2017-07-14T19:34:46.915Z,19.20
2017-07-14T19:37:15.108Z,19.20
2017-07-14T19:39:43.292Z,19.20
2017-07-14T19:42:11.429Z,19.30
2017-07-14T19:44:39.587Z,19.20
2017-07-14T19:47:08.050Z,19.40
2017-07-14T19:49:36.181Z,19.30
2017-07-14T19:52:04.533Z,19.10
2017-07-14T19:54:33.473Z,19.00
2017-07-14T19:57:01.605Z,18.90
2017-07-14T19:59:29.751Z,18.90
2017-07-14T20:01:58.756Z,18.70
2017-07-14T20:04:26.921Z,18.60
2017-07-14T20:06:55.089Z,18.50
2017-07-14T20:09:23.228Z,18.60
2017-07-14T20:11:51.901Z,18.60
2017-07-14T20:14:20.043Z,18.60
2017-07-14T20:16:48.199Z,18.60
2017-07-14T20:19:17.110Z,18.40
2017-07-14T20:21:45.236Z,18.30
2017-07-14T20:24:13.746Z,18.40
2017-07-14T20:26:41.859Z,18.40
2017-07-14T20:29:10.005Z,18.40
2017-07-14T20:31:39.517Z,18.50
2017-07-14T20:34:07.702Z,18.50
2017-07-14T20:36:35.857Z,18.50
2017-07-14T20:39:04.024Z,18.40
2017-07-14T20:41:32.171Z,18.20
2017-07-14T20:44:01.723Z,18.10
2017-07-14T20:46:29.891Z,18.00
2017-07-14T20:48:58.052Z,18.00
2017-07-14T20:51:26.286Z,18.00
2017-07-14T20:53:54.521Z,17.90
2017-07-14T20:56:23.159Z,17.90
2017-07-14T20:58:51.291Z,17.80
2017-07-14T21:01:20.047Z,17.80
2017-07-14T21:03:48.269Z,17.80
2017-07-14T21:06:16.734Z,17.70
2017-07-14T21:08:45.082Z,17.80
2017-07-14T21:11:14.021Z,17.80
2017-07-14T21:13:42.165Z,17.70
2017-07-14T21:16:10.340Z,17.60
2017-07-14T21:18:38.459Z,17.60
2017-07-14T21:21:06.582Z,17.50
2017-07-14T21:23:34.767Z,17.40
2017-07-14T21:26:02.958Z,17.20
2017-07-14T21:28:31.096Z,17.20
2017-07-14T21:30:59.297Z,17.10
2017-07-14T21:33:27.569Z,17.00
2017-07-14T21:35:55.775Z,16.80
2017-07-14T21:38:23.956Z,16.80
2017-07-14T21:40:52.086Z,16.80
2017-07-14T21:43:20.494Z,16.60
2017-07-14T21:45:48.678Z,16.50
2017-07-14T21:48:16.834Z,16.40
2017-07-14T21:50:44.974Z,16.30
2017-07-14T21:53:13.850Z,16.20
2017-07-14T21:55:42.144Z,16.20
2017-07-14T21:58:10.293Z,16.10
2017-07-14T22:00:38.568Z,16.00
2017-07-14T22:03:06.691Z,15.90
2017-07-14T22:05:34.849Z,15.90
2017-07-14T22:08:03.012Z,15.80
2017-07-14T22:10:31.178Z,15.70
2017-07-14T22:12:59.820Z,15.60
2017-07-14T22:15:28.835Z,15.60
2017-07-14T22:17:56.961Z,15.60
2017-07-14T22:20:25.567Z,15.60
2017-07-14T22:22:53.866Z,15.50
2017-07-14T22:25:22.577Z,15.50
2017-07-14T22:27:51.154Z,15.50
2017-07-14T22:30:20.241Z,15.50
2017-07-14T22:32:49.133Z,15.40
2017-07-14T22:35:17.356Z,15.40
2017-07-14T22:37:45.636Z,15.50
2017-07-14T22:40:13.769Z,15.60
2017-07-14T22:42:41.913Z,15.60
2017-07-14T22:45:11.286Z,15.60
2017-07-14T22:47:39.502Z,15.50
2017-07-14T22:50:08.764Z,15.60
2017-07-14T22:52:36.892Z,15.60
2017-07-14T22:55:05.024Z,15.60
2017-07-14T22:57:33.282Z,15.60
2017-07-14T23:00:01.465Z,15.80
2017-07-14T23:02:29.625Z,15.80
2017-07-14T23:04:57.847Z,15.80
2017-07-14T23:07:25.951Z,15.80
2017-07-14T23:09:54.491Z,15.80
2017-07-14T23:12:22.679Z,15.90
2017-07-14T23:14:50.847Z,15.80
2017-07-14T23:17:19.011Z,15.70
2017-07-14T23:19:47.174Z,15.50
2017-07-14T23:22:15.333Z,15.50
2017-07-14T23:24:43.450Z,15.40
2017-07-14T23:27:11.595Z,15.30
2017-07-14T23:29:40.279Z,15.20
2017-07-14T23:32:08.440Z,15.20
2017-07-14T23:34:36.738Z,15.20
2017-07-14T23:37:04.901Z,15.10
2017-07-14T23:39:33.078Z,15.10
2017-07-14T23:42:01.284Z,15.10
2017-07-14T23:44:29.446Z,15.00
2017-07-14T23:46:57.623Z,15.00
2017-07-14T23:49:25.800Z,14.80
2017-07-14T23:51:55.066Z,14.80
2017-07-14T23:54:23.220Z,14.70
2017-07-14T23:56:51.372Z,14.70
2017-07-14T23:59:20.300Z,14.60
